Nieuw Amsterdam — PBWQ — position and weather

sailwx.info

Track history (hours):
 
Tides and Currents Weather Stations Pressure Air Temp Water Temp Dewpoint Dewpoint Depression Visibility Wind Speed Wind Dir Waves Ship Positions

Nieuw Amsterdam

Last reported at 2018-Sep-18 13:00 UTC. Time now 2018-Sep-19 03:41 UTC.
Position N 59°12' W 135°18'.

Length 285 m; draft 8 m.

Type: Passenger vessel. MMSI: 246648000.

Wind from 010 at 10 knots

Barometer 1022.8 mb
Air temperature 5.0 ° C
Visibility: greater than 10.8 NM
Water temperature 13.0 ° C

Date/timePositionNaut miles runAvg speedWind from/ knotsBaromVisibWave heightAir tempDewpointWater temp
2018-Sep-18 13:00N 59°12' W 135°18'294 9.0 010 / 101022.810.8 5.0 13.0
2018-Sep-17 04:17N 54°33' W 132°31'520.5
2018-Sep-17 04:03N 54°32' W 132°23'519.8
2018-Sep-17 03:48N 54°30' W 132°14'618.8
2018-Sep-17 03:29N 54°29' W 132°05'818.7
2018-Sep-17 03:03N 54°27' W 131°51'118.1
2018-Sep-17 03:00N 54°26' W 131°50'918.7
2018-Sep-17 02:30N 54°24' W 131°34'818.6
2018-Sep-17 02:03N 54°22' W 131°20'117.8
2018-Sep-17 02:00N 54°22' W 131°19'918.2
2018-Sep-17 01:30N 54°19' W 131°04'510.3
2018-Sep-17 01:03N 54°14' W 131°01'113.4
2018-Sep-17 01:00N 54°14' W 131°02'918.0
2018-Sep-17 00:31N 54°05' W 130°60'818.5
2018-Sep-17 00:03N 53°57' W 130°57'118.2
2018-Sep-17 00:00N 53°56' W 130°57'918.8
2018-Sep-16 23:30N 53°49' W 130°46'918.9
2018-Sep-16 23:03N 53°43' W 130°35'118.7
2018-Sep-16 23:00N 53°43' W 130°34'1019.1
2018-Sep-16 22:30N 53°37' W 130°21'919.5
2018-Sep-16 22:03N 53°32' W 130°09'119.8
2018-Sep-16 22:00N 53°32' W 130°07'6219.2
2018-Sep-16 18:46N 52°43' W 129°03'518.3
2018-Sep-16 18:29N 52°40' W 128°57'716.0
2018-Sep-16 18:03N 52°33' W 128°53'116.3
2018-Sep-16 18:00N 52°32' W 128°53'918.9
2018-Sep-16 17:30N 52°23' W 128°50'818.8
2018-Sep-16 17:03N 52°15' W 128°48'118.6
2018-Sep-16 17:00N 52°14' W 128°47'918.7
2018-Sep-16 16:30N 52°05' W 128°45'818.9
2018-Sep-16 16:03N 51°56' W 128°42'118.9
2018-Sep-16 16:00N 51°55' W 128°42'918.9
2018-Sep-16 15:31N 51°46' W 128°37'818.3
2018-Sep-16 15:04N 51°39' W 128°32'118.5
2018-Sep-16 15:01N 51°38' W 128°32'918.4
2018-Sep-16 14:31N 51°29' W 128°33'1732.1
2018-Sep-16 14:00N 51°12' W 128°30'612.0 360 / 181010.127.0 11.0 14.0
2018-Sep-16 13:30N 51°13' W 128°21'919.2
2018-Sep-16 13:04N 51°08' W 128°10'118.8
2018-Sep-16 13:00N 51°08' W 128°08'2188.5
2018-Sep-16 13:00N 51°06' W 128°06'715.1 010 / 171009.810.8 11.0 12.0
2018-Sep-16 12:31N 51°02' W 127°56'919.1
2018-Sep-16 12:03N 50°57' W 127°45'118.8
2018-Sep-16 12:00N 50°57' W 127°44'6368.5
2018-Sep-16 12:00N 50°54' W 127°36'4 8.6 300 / 151009.4 5.4 10.0 9.0
2018-Sep-16 11:30N 50°51' W 127°31'919.2
2018-Sep-16 11:03N 50°47' W 127°19'119.5
2018-Sep-16 11:00N 50°47' W 127°17'1119.6
2018-Sep-16 10:26N 50°43' W 127°01'2513.0
2018-Sep-16 08:30N 50°30' W 126°27'3517.5
2018-Sep-16 06:31N 50°22' W 125°34'517.6
2018-Sep-16 06:15N 50°20' W 125°27'211.7
2018-Sep-16 06:03N 50°18' W 125°25'115.9
2018-Sep-16 06:00N 50°18' W 125°25'816.5
2018-Sep-16 05:30N 50°10' W 125°22'612.4
2018-Sep-16 05:03N 50°05' W 125°17'113.6
2018-Sep-16 05:00N 50°05' W 125°16'713.9
2018-Sep-16 04:30N 49°59' W 125°11'918.8
2018-Sep-16 04:03N 49°53' W 125°01'119.9
2018-Sep-16 04:01N 49°52' W 125°00'1019.6
2018-Sep-16 03:31N 49°45' W 124°50'919.3
2018-Sep-16 03:03N 49°39' W 124°40'119.7
2018-Sep-16 03:00N 49°38' W 124°39'1019.5
2018-Sep-16 02:30N 49°31' W 124°28'919.7
2018-Sep-16 02:03N 49°26' W 124°18'119.8
2018-Sep-16 02:00N 49°25' W 124°16'1121.1
2018-Sep-16 01:30N 49°22' W 124°01'1022.4
2018-Sep-16 01:03N 49°20' W 123°46'122.3
2018-Sep-16 01:00N 49°20' W 123°44'1122.2
2018-Sep-16 00:30N 49°19' W 123°27'921.2
2018-Sep-16 00:03N 49°19' W 123°12'118.1
2018-Sep-16 00:00N 49°19' W 123°11'3 6.6
2018-Sep-15 23:30N 49°17' W 123°07'0 0.0
2018-Sep-15 23:03N 49°17' W 123°07'0 0.0
2018-Sep-15 23:00N 49°17' W 123°07'0 0.0
2018-Sep-15 22:29N 49°17' W 123°07'0 0.0
2018-Sep-15 22:02N 49°17' W 123°07'0 0.0
2018-Sep-15 21:59N 49°17' W 123°07'0 0.0
2018-Sep-15 21:28N 49°17' W 123°07'0 0.0
2018-Sep-15 21:03N 49°17' W 123°07'0 0.0
2018-Sep-15 21:00N 49°17' W 123°07'0 0.0
2018-Sep-15 20:30N 49°17' W 123°07'0 0.0
2018-Sep-15 20:03N 49°17' W 123°07'0 0.0
2018-Sep-15 20:00N 49°17' W 123°07'0 0.0
2018-Sep-15 19:29N 49°17' W 123°07'0 0.0
2018-Sep-15 19:03N 49°17' W 123°07'0 0.0
2018-Sep-15 18:58N 49°17' W 123°07'0 0.0
2018-Sep-15 18:28N 49°17' W 123°07'0 0.0
2018-Sep-15 18:03N 49°17' W 123°07'0 0.0
2018-Sep-15 17:57N 49°17' W 123°07'0 0.0
2018-Sep-15 17:30N 49°17' W 123°07'0 0.0
2018-Sep-15 17:01N 49°17' W 123°07'0 0.0
2018-Sep-15 16:58N 49°17' W 123°07'0 0.0
2018-Sep-15 16:30N 49°17' W 123°07'0 0.0
2018-Sep-15 16:02N 49°17' W 123°07'0 0.0
2018-Sep-15 15:59N 49°17' W 123°07'0 0.0
2018-Sep-15 15:28N 49°17' W 123°07'0 0.0
2018-Sep-15 15:01N 49°17' W 123°07'0 0.0
2018-Sep-15 14:27N 49°17' W 123°07'0 0.1
2018-Sep-15 14:00N 49°17' W 123°07'2 3.4
2018-Sep-15 13:30N 49°19' W 123°08'511.3
2018-Sep-15 13:03N 49°18' W 123°16'111.9
2018-Sep-15 13:00N 49°18' W 123°17'161.6
2018-Sep-15 13:00N 49°18' W 123°18'510.5 100 / 141011.210.8 14.0 17.0
2018-Sep-15 12:30N 49°19' W 123°26'511.4
2018-Sep-15 12:03N 49°19' W 123°34'111.4
2018-Sep-15 12:00N 49°19' W 123°35'1348.0
2018-Sep-15 12:00N 49°18' W 123°36'5 9.8 080 / 201011.110.8 13.0 16.0
2018-Sep-15 11:30N 49°19' W 123°43'511.4
2018-Sep-15 11:03N 49°21' W 123°51'111.3
2018-Sep-15 10:59N 49°21' W 123°52'511.2
2018-Sep-15 10:30N 49°22' W 123°60'511.0
2018-Sep-15 10:03N 49°23' W 124°07'011.4
2018-Sep-15 10:00N 49°23' W 124°08'510.9
2018-Sep-15 09:30N 49°25' W 124°16'511.2
2018-Sep-15 09:03N 49°27' W 124°23'110.7
2018-Sep-15 09:00N 49°27' W 124°24'510.7
2018-Sep-15 08:30N 49°31' W 124°31'611.2
2018-Sep-15 08:00N 49°35' W 124°36'611.6
2018-Sep-15 07:30N 49°39' W 124°42'511.5
2018-Sep-15 07:03N 49°43' W 124°47'112.1
2018-Sep-15 07:00N 49°43' W 124°48'611.4
2018-Sep-15 06:30N 49°48' W 124°54'511.1
2018-Sep-15 06:03N 49°51' W 124°59'111.6
2018-Sep-15 06:00N 49°52' W 125°00'611.2
2018-Sep-15 05:30N 49°55' W 125°06'511.9
2018-Sep-15 05:03N 49°59' W 125°12'111.5
2018-Sep-15 05:00N 49°60' W 125°13'611.7
2018-Sep-15 04:30N 50°05' W 125°16'612.8
2018-Sep-15 04:03N 50°10' W 125°22'113.2
2018-Sep-15 04:00N 50°10' W 125°22'714.5
2018-Sep-15 03:30N 50°18' W 125°25'4115.9
2018-Sep-15 00:53N 50°30' W 126°27'915.7
2018-Sep-15 00:20N 50°32' W 126°40'1516.0
2018-Sep-14 23:25N 50°42' W 126°56'1419.1
2018-Sep-14 22:41N 50°47' W 127°17'319.2
2018-Sep-14 22:30N 50°49' W 127°22'919.2
2018-Sep-14 22:03N 50°52' W 127°34'119.1
2018-Sep-14 22:00N 50°53' W 127°36'918.7
2018-Sep-14 21:30N 50°59' W 127°47'716.1
2018-Sep-14 21:03N 51°03' W 127°57'119.4
2018-Sep-14 21:00N 51°03' W 127°58'1019.9
2018-Sep-14 20:30N 51°09' W 128°11'920.6
2018-Sep-14 20:03N 51°16' W 128°21'121.2
2018-Sep-14 20:00N 51°17' W 128°22'1121.3
2018-Sep-14 19:30N 51°27' W 128°27'920.9
2018-Sep-14 19:03N 51°36' W 128°31'120.8
2018-Sep-14 19:00N 51°37' W 128°32'1019.6
2018-Sep-14 18:30N 51°46' W 128°38'818.5
2018-Sep-14 18:03N 51°51' W 128°48'118.3
2018-Sep-14 18:00N 51°52' W 128°49'918.7
2018-Sep-14 17:30N 51°58' W 129°01'919.1
2018-Sep-14 17:03N 52°03' W 129°12'119.0
2018-Sep-14 17:00N 52°04' W 129°13'1019.3
2018-Sep-14 16:30N 52°10' W 129°26'919.4
2018-Sep-14 16:03N 52°15' W 129°37'119.4
2018-Sep-14 16:00N 52°16' W 129°38'1019.3
2018-Sep-14 15:30N 52°22' W 129°49'919.5
2018-Sep-14 15:03N 52°30' W 129°57'119.3
2018-Sep-14 15:00N 52°31' W 129°58'1019.8
2018-Sep-14 14:30N 52°39' W 130°06'1019.6
2018-Sep-14 14:00N 52°48' W 130°14'185.7
2018-Sep-14 14:00N 52°48' W 130°12'2121.0 110 / 71013.310.8 13.0 14.0
2018-Sep-14 13:00N 53°06' W 130°30'1118.4 110 / 81013.6 5.4 12.0 14.0
2018-Sep-14 12:25N 53°15' W 130°38'719.2
2018-Sep-14 12:03N 53°22' W 130°43'119.3
2018-Sep-14 12:00N 53°22' W 130°44'2132.4
2018-Sep-14 12:00N 53°24' W 130°42'917.8 110 / 51014.1 5.4 12.0 13.0
2018-Sep-14 11:30N 53°31' W 130°50'919.0
2018-Sep-14 11:03N 53°39' W 130°54'119.0
2018-Sep-14 11:00N 53°40' W 130°54'918.9
2018-Sep-14 10:31N 53°49' W 130°59'919.1
2018-Sep-14 10:03N 53°58' W 130°60'119.3
2018-Sep-14 10:00N 53°59' W 130°60'1019.8
2018-Sep-14 09:30N 54°09' W 131°02'920.3
2018-Sep-14 09:03N 54°18' W 131°04'120.8
2018-Sep-14 09:00N 54°19' W 131°04'1020.5
2018-Sep-14 08:30N 54°28' W 131°12'2018.0
2018-Sep-14 07:25N 54°48' W 131°11'719.4
2018-Sep-14 07:03N 54°54' W 131°07'120.1
2018-Sep-14 07:00N 54°55' W 131°07'7 2.4
2018-Sep-14 04:15N 55°02' W 131°08'59 4.5
2018-Sep-13 15:00N 55°42' W 132°24'2120.6 240 / 21016.027.0 11.0 13.0
2018-Sep-13 14:00N 56°00' W 132°42'18113.0 270 / 101016.227.0 10.0 13.0
2018-Sep-13 00:02N 58°18' W 136°17'122.6
2018-Sep-13 00:00N 58°18' W 136°15'1019.9
2018-Sep-12 23:30N 58°24' W 135°59'511.4
2018-Sep-12 23:03N 58°28' W 136°02'114.6
2018-Sep-12 23:00N 58°29' W 136°03'816.6
2018-Sep-12 22:30N 58°37' W 136°06'919.4
2018-Sep-12 22:03N 58°44' W 136°17'119.4
2018-Sep-12 22:00N 58°45' W 136°18'1019.4
2018-Sep-12 21:30N 58°50' W 136°33'2 0.3
2018-Sep-12 16:33N 58°50' W 136°30'119.1
2018-Sep-12 16:30N 58°49' W 136°28'819.2
2018-Sep-12 16:03N 58°44' W 136°16'118.8
2018-Sep-12 16:00N 58°43' W 136°15'918.7
2018-Sep-12 15:30N 58°36' W 136°04'716.2
2018-Sep-12 15:03N 58°28' W 136°03'111.8
2018-Sep-12 15:00N 58°28' W 136°02'2157.9
2018-Sep-12 15:00N 58°30' W 136°00'713.5 010 / 21017.810.8 12.0 17.0
2018-Sep-12 14:30N 58°24' W 135°57'612.3
2018-Sep-12 14:00N 58°18' W 135°54'3280.5
2018-Sep-12 14:00N 58°18' W 135°48'3 5.2 050 / 41016.910.8 12.0 17.0
2018-Sep-12 13:30N 58°17' W 135°43'511.7
2018-Sep-12 13:03N 58°16' W 135°34'110.8
2018-Sep-12 13:00N 58°16' W 135°33'6386.0
2018-Sep-12 13:00N 58°12' W 135°24'2 3.7 300 / 31017.1 5.4 10.0 17.0
2018-Sep-12 12:30N 58°14' W 135°24'510.8
2018-Sep-12 12:03N 58°12' W 135°15'8 7.6
2018-Sep-12 11:00N 58°12' W 135°00'61 2.8 360 / 151016.510.8 13.6 14.0
2018-Sep-11 13:00N 59°12' W 135°18'308 9.1 350 / 201013.6 5.4 12.0 14.0
2018-Sep-10 03:06N 54°27' W 131°47'119.5
2018-Sep-10 03:03N 54°26' W 131°46'121.0
2018-Sep-10 03:00N 54°26' W 131°44'1019.6
2018-Sep-10 02:30N 54°24' W 131°28'818.7
2018-Sep-10 02:03N 54°22' W 131°14'119.2
2018-Sep-10 02:00N 54°21' W 131°12'816.7
2018-Sep-10 01:30N 54°17' W 131°01'715.1
2018-Sep-10 01:03N 54°10' W 131°01'116.7
2018-Sep-10 01:00N 54°09' W 131°01'816.8
2018-Sep-10 00:30N 54°01' W 130°59'716.2
2018-Sep-10 00:03N 53°54' W 130°54'115.9
2018-Sep-10 00:00N 53°54' W 130°53'6387.4
2018-Sep-10 00:00N 53°48' W 130°48'3 6.6 120 / 201003.2 5.4 14.2 16.5
2018-Sep-09 23:30N 53°48' W 130°42'716.9
2018-Sep-09 23:03N 53°43' W 130°33'116.5
2018-Sep-09 23:00N 53°42' W 130°32'1016.5
2018-Sep-09 22:24N 53°36' W 130°19'616.1
2018-Sep-09 22:00N 53°33' W 130°10'6717.4
2018-Sep-09 18:10N 52°41' W 128°59'635.2
2018-Sep-09 18:00N 52°36' W 128°54'1 6.6 140 / 221005.1 5.4 15.9 17.3
2018-Sep-09 17:53N 52°37' W 128°54'720.1
2018-Sep-09 17:30N 52°29' W 128°52'919.6
2018-Sep-09 17:03N 52°21' W 128°50'119.9
2018-Sep-09 17:00N 52°20' W 128°50'1019.5
2018-Sep-09 16:30N 52°10' W 128°46'919.8
2018-Sep-09 16:03N 52°01' W 128°43'119.7
2018-Sep-09 16:00N 52°00' W 128°43'1019.6
2018-Sep-09 15:30N 51°51' W 128°39'919.2
2018-Sep-09 15:03N 51°43' W 128°34'119.4
2018-Sep-09 15:00N 51°42' W 128°34'1019.1
2018-Sep-09 14:30N 51°32' W 128°32'918.8
2018-Sep-09 14:00N 51°23' W 128°33'917.4
2018-Sep-09 13:30N 51°16' W 128°26'919.9
2018-Sep-09 13:03N 51°10' W 128°14'121.1
2018-Sep-09 13:00N 51°10' W 128°13'1020.6
2018-Sep-09 12:30N 51°04' W 127°59'921.0
2018-Sep-09 12:03N 50°58' W 127°47'121.9
2018-Sep-09 12:00N 50°58' W 127°46'1121.7
2018-Sep-09 11:30N 50°51' W 127°31'1021.3
2018-Sep-09 11:03N 50°48' W 127°18'120.5
2018-Sep-09 11:00N 50°47' W 127°16'1020.7
2018-Sep-09 10:30N 50°43' W 127°01'1019.8
2018-Sep-09 10:01N 50°38' W 126°48'021.8
2018-Sep-09 10:00N 50°38' W 126°48'4117.4
2018-Sep-09 07:39N 50°23' W 125°48'1018.3
2018-Sep-09 07:05N 50°21' W 125°32'118.6
2018-Sep-09 07:02N 50°21' W 125°31'217.6
2018-Sep-09 06:54N 50°20' W 125°27'716.6
2018-Sep-09 06:30N 50°14' W 125°23'715.5
2018-Sep-09 06:03N 50°07' W 125°21'113.5
2018-Sep-09 06:00N 50°07' W 125°20'713.0
2018-Sep-09 05:30N 50°02' W 125°13'716.1
2018-Sep-09 05:03N 49°56' W 125°07'116.9
2018-Sep-09 05:00N 49°56' W 125°06'816.5
2018-Sep-09 04:30N 49°50' W 124°56'716.7
2018-Sep-09 04:03N 49°44' W 124°48'116.6
2018-Sep-09 04:00N 49°44' W 124°47'816.5
2018-Sep-09 03:30N 49°38' W 124°38'817.5
2018-Sep-09 03:03N 49°33' W 124°30'120.1
2018-Sep-09 03:00N 49°32' W 124°28'1019.7
2018-Sep-09 02:30N 49°25' W 124°17'919.3
2018-Sep-09 02:03N 49°23' W 124°04'119.5
2018-Sep-09 02:01N 49°23' W 124°03'1019.2
2018-Sep-09 01:30N 49°20' W 123°49'818.6
2018-Sep-09 01:04N 49°19' W 123°36'119.1
2018-Sep-09 01:00N 49°19' W 123°34'3226.9
2018-Sep-09 01:00N 49°18' W 123°30'714.4 140 / 161017.310.8 15.7 20.3
2018-Sep-09 00:30N 49°19' W 123°19'716.3
2018-Sep-09 00:03N 49°19' W 123°08'0 9.1
2018-Sep-09 00:00N 49°19' W 123°08'1 2.8
2018-Sep-08 23:30N 49°17' W 123°07'0 0.0
2018-Sep-08 23:03N 49°17' W 123°07'0 0.0
2018-Sep-08 23:00N 49°17' W 123°07'0 0.0
2018-Sep-08 22:30N 49°17' W 123°07'0 0.0
2018-Sep-08 22:03N 49°17' W 123°07'0 0.0
2018-Sep-08 22:00N 49°17' W 123°07'0 0.0
2018-Sep-08 21:29N 49°17' W 123°07'0 0.0
2018-Sep-08 21:01N 49°17' W 123°07'0 0.0
2018-Sep-08 20:58N 49°17' W 123°07'0 0.0
2018-Sep-08 20:28N 49°17' W 123°07'0 0.0
2018-Sep-08 20:01N 49°17' W 123°07'0 0.0
2018-Sep-08 19:58N 49°17' W 123°07'0 0.0
2018-Sep-08 19:27N 49°17' W 123°07'0 0.0
2018-Sep-08 19:03N 49°17' W 123°07'0 0.0
2018-Sep-08 19:00N 49°17' W 123°07'0 0.0
2018-Sep-08 18:30N 49°17' W 123°07'0 0.0
2018-Sep-08 18:03N 49°17' W 123°07'0 0.0
2018-Sep-08 18:00N 49°17' W 123°07'0 0.0
2018-Sep-08 17:30N 49°17' W 123°07'0 0.0
2018-Sep-08 17:03N 49°17' W 123°07'0 0.0
2018-Sep-08 17:00N 49°17' W 123°07'0 0.0
2018-Sep-08 16:30N 49°17' W 123°07'0 0.0
2018-Sep-08 16:03N 49°17' W 123°07'0 0.0
2018-Sep-08 16:00N 49°17' W 123°07'0 0.0
2018-Sep-08 15:30N 49°17' W 123°07'0 0.0
2018-Sep-08 15:03N 49°17' W 123°07'0 0.0
2018-Sep-08 15:00N 49°17' W 123°07'0 0.0
2018-Sep-08 14:29N 49°17' W 123°07'0 0.1
2018-Sep-08 14:00N 49°17' W 123°07'2 3.9
2018-Sep-08 13:30N 49°19' W 123°08'613.7
2018-Sep-08 13:03N 49°19' W 123°18'113.9
2018-Sep-08 13:00N 49°19' W 123°19'1104.4
2018-Sep-08 13:00N 49°18' W 123°18'   110 / 131017.8 5.4 15.0 16.0
Track history (hours):
 
Tides and Currents Weather Stations Pressure Air Temp Water Temp Dewpoint Dewpoint Depression Visibility Wind Speed Wind Dir Waves Ship Positions

Nieuw Amsterdam

Last reported at 2018-Sep-18 13:00 UTC. Time now 2018-Sep-19 03:41 UTC.
Position N 59°12' W 135°18'.

Length 285 m; draft 8 m.

Type: Passenger vessel. MMSI: 246648000.

Wind from 010 at 10 knots

Barometer 1022.8 mb
Air temperature 5.0 ° C
Visibility: greater than 10.8 NM
Water temperature 13.0 ° C

Date/timePositionNaut miles runAvg speedWind from/ knotsBaromVisibWave heightAir tempDewpointWater temp
2018-Sep-18 13:00N 59°12' W 135°18'294 9.0 010 / 101022.810.8 5.0 13.0
2018-Sep-17 04:17N 54°33' W 132°31'520.5
2018-Sep-17 04:03N 54°32' W 132°23'519.8
2018-Sep-17 03:48N 54°30' W 132°14'618.8
2018-Sep-17 03:29N 54°29' W 132°05'818.7
2018-Sep-17 03:03N 54°27' W 131°51'118.1
2018-Sep-17 03:00N 54°26' W 131°50'918.7
2018-Sep-17 02:30N 54°24' W 131°34'818.6
2018-Sep-17 02:03N 54°22' W 131°20'117.8
2018-Sep-17 02:00N 54°22' W 131°19'918.2
2018-Sep-17 01:30N 54°19' W 131°04'510.3
2018-Sep-17 01:03N 54°14' W 131°01'113.4
2018-Sep-17 01:00N 54°14' W 131°02'918.0
2018-Sep-17 00:31N 54°05' W 130°60'818.5
2018-Sep-17 00:03N 53°57' W 130°57'118.2
2018-Sep-17 00:00N 53°56' W 130°57'918.8
2018-Sep-16 23:30N 53°49' W 130°46'918.9
2018-Sep-16 23:03N 53°43' W 130°35'118.7
2018-Sep-16 23:00N 53°43' W 130°34'1019.1
2018-Sep-16 22:30N 53°37' W 130°21'919.5
2018-Sep-16 22:03N 53°32' W 130°09'119.8
2018-Sep-16 22:00N 53°32' W 130°07'6219.2
2018-Sep-16 18:46N 52°43' W 129°03'518.3
2018-Sep-16 18:29N 52°40' W 128°57'716.0
2018-Sep-16 18:03N 52°33' W 128°53'116.3
2018-Sep-16 18:00N 52°32' W 128°53'918.9
2018-Sep-16 17:30N 52°23' W 128°50'818.8
2018-Sep-16 17:03N 52°15' W 128°48'118.6
2018-Sep-16 17:00N 52°14' W 128°47'918.7
2018-Sep-16 16:30N 52°05' W 128°45'818.9
2018-Sep-16 16:03N 51°56' W 128°42'118.9
2018-Sep-16 16:00N 51°55' W 128°42'918.9
2018-Sep-16 15:31N 51°46' W 128°37'818.3
2018-Sep-16 15:04N 51°39' W 128°32'118.5
2018-Sep-16 15:01N 51°38' W 128°32'918.4
2018-Sep-16 14:31N 51°29' W 128°33'1732.1
2018-Sep-16 14:00N 51°12' W 128°30'612.0 360 / 181010.127.0 11.0 14.0
2018-Sep-16 13:30N 51°13' W 128°21'919.2
2018-Sep-16 13:04N 51°08' W 128°10'118.8
2018-Sep-16 13:00N 51°08' W 128°08'2188.5
2018-Sep-16 13:00N 51°06' W 128°06'715.1 010 / 171009.810.8 11.0 12.0
2018-Sep-16 12:31N 51°02' W 127°56'919.1
2018-Sep-16 12:03N 50°57' W 127°45'118.8
2018-Sep-16 12:00N 50°57' W 127°44'6368.5
2018-Sep-16 12:00N 50°54' W 127°36'4 8.6 300 / 151009.4 5.4 10.0 9.0
2018-Sep-16 11:30N 50°51' W 127°31'919.2
2018-Sep-16 11:03N 50°47' W 127°19'119.5
2018-Sep-16 11:00N 50°47' W 127°17'1119.6
2018-Sep-16 10:26N 50°43' W 127°01'2513.0
2018-Sep-16 08:30N 50°30' W 126°27'3517.5
2018-Sep-16 06:31N 50°22' W 125°34'517.6
2018-Sep-16 06:15N 50°20' W 125°27'211.7
2018-Sep-16 06:03N 50°18' W 125°25'115.9
2018-Sep-16 06:00N 50°18' W 125°25'816.5
2018-Sep-16 05:30N 50°10' W 125°22'612.4
2018-Sep-16 05:03N 50°05' W 125°17'113.6
2018-Sep-16 05:00N 50°05' W 125°16'713.9
2018-Sep-16 04:30N 49°59' W 125°11'918.8
2018-Sep-16 04:03N 49°53' W 125°01'119.9
2018-Sep-16 04:01N 49°52' W 125°00'1019.6
2018-Sep-16 03:31N 49°45' W 124°50'919.3
2018-Sep-16 03:03N 49°39' W 124°40'119.7
2018-Sep-16 03:00N 49°38' W 124°39'1019.5
2018-Sep-16 02:30N 49°31' W 124°28'919.7
2018-Sep-16 02:03N 49°26' W 124°18'119.8
2018-Sep-16 02:00N 49°25' W 124°16'1121.1
2018-Sep-16 01:30N 49°22' W 124°01'1022.4
2018-Sep-16 01:03N 49°20' W 123°46'122.3
2018-Sep-16 01:00N 49°20' W 123°44'1122.2
2018-Sep-16 00:30N 49°19' W 123°27'921.2
2018-Sep-16 00:03N 49°19' W 123°12'118.1
2018-Sep-16 00:00N 49°19' W 123°11'3 6.6
2018-Sep-15 23:30N 49°17' W 123°07'0 0.0
2018-Sep-15 23:03N 49°17' W 123°07'0 0.0
2018-Sep-15 23:00N 49°17' W 123°07'0 0.0
2018-Sep-15 22:29N 49°17' W 123°07'0 0.0
2018-Sep-15 22:02N 49°17' W 123°07'0 0.0
2018-Sep-15 21:59N 49°17' W 123°07'0 0.0
2018-Sep-15 21:28N 49°17' W 123°07'0 0.0
2018-Sep-15 21:03N 49°17' W 123°07'0 0.0
2018-Sep-15 21:00N 49°17' W 123°07'0 0.0
2018-Sep-15 20:30N 49°17' W 123°07'0 0.0
2018-Sep-15 20:03N 49°17' W 123°07'0 0.0
2018-Sep-15 20:00N 49°17' W 123°07'0 0.0
2018-Sep-15 19:29N 49°17' W 123°07'0 0.0
2018-Sep-15 19:03N 49°17' W 123°07'0 0.0
2018-Sep-15 18:58N 49°17' W 123°07'0 0.0
2018-Sep-15 18:28N 49°17' W 123°07'0 0.0
2018-Sep-15 18:03N 49°17' W 123°07'0 0.0
2018-Sep-15 17:57N 49°17' W 123°07'0 0.0
2018-Sep-15 17:30N 49°17' W 123°07'0 0.0
2018-Sep-15 17:01N 49°17' W 123°07'0 0.0
2018-Sep-15 16:58N 49°17' W 123°07'0 0.0
2018-Sep-15 16:30N 49°17' W 123°07'0 0.0
2018-Sep-15 16:02N 49°17' W 123°07'0 0.0
2018-Sep-15 15:59N 49°17' W 123°07'0 0.0
2018-Sep-15 15:28N 49°17' W 123°07'0 0.0
2018-Sep-15 15:01N 49°17' W 123°07'0 0.0
2018-Sep-15 14:27N 49°17' W 123°07'0 0.1
2018-Sep-15 14:00N 49°17' W 123°07'2 3.4
2018-Sep-15 13:30N 49°19' W 123°08'511.3
2018-Sep-15 13:03N 49°18' W 123°16'111.9
2018-Sep-15 13:00N 49°18' W 123°17'161.6
2018-Sep-15 13:00N 49°18' W 123°18'510.5 100 / 141011.210.8 14.0 17.0
2018-Sep-15 12:30N 49°19' W 123°26'511.4
2018-Sep-15 12:03N 49°19' W 123°34'111.4
2018-Sep-15 12:00N 49°19' W 123°35'1348.0
2018-Sep-15 12:00N 49°18' W 123°36'5 9.8 080 / 201011.110.8 13.0 16.0
2018-Sep-15 11:30N 49°19' W 123°43'511.4
2018-Sep-15 11:03N 49°21' W 123°51'111.3
2018-Sep-15 10:59N 49°21' W 123°52'511.2
2018-Sep-15 10:30N 49°22' W 123°60'511.0
2018-Sep-15 10:03N 49°23' W 124°07'011.4
2018-Sep-15 10:00N 49°23' W 124°08'510.9
2018-Sep-15 09:30N 49°25' W 124°16'511.2
2018-Sep-15 09:03N 49°27' W 124°23'110.7
2018-Sep-15 09:00N 49°27' W 124°24'510.7
2018-Sep-15 08:30N 49°31' W 124°31'611.2
2018-Sep-15 08:00N 49°35' W 124°36'611.6
2018-Sep-15 07:30N 49°39' W 124°42'511.5
2018-Sep-15 07:03N 49°43' W 124°47'112.1
2018-Sep-15 07:00N 49°43' W 124°48'611.4
2018-Sep-15 06:30N 49°48' W 124°54'511.1
2018-Sep-15 06:03N 49°51' W 124°59'111.6
2018-Sep-15 06:00N 49°52' W 125°00'611.2
2018-Sep-15 05:30N 49°55' W 125°06'511.9
2018-Sep-15 05:03N 49°59' W 125°12'111.5
2018-Sep-15 05:00N 49°60' W 125°13'611.7
2018-Sep-15 04:30N 50°05' W 125°16'612.8
2018-Sep-15 04:03N 50°10' W 125°22'113.2
2018-Sep-15 04:00N 50°10' W 125°22'714.5
2018-Sep-15 03:30N 50°18' W 125°25'4115.9
2018-Sep-15 00:53N 50°30' W 126°27'915.7
2018-Sep-15 00:20N 50°32' W 126°40'1516.0
2018-Sep-14 23:25N 50°42' W 126°56'1419.1
2018-Sep-14 22:41N 50°47' W 127°17'319.2
2018-Sep-14 22:30N 50°49' W 127°22'919.2
2018-Sep-14 22:03N 50°52' W 127°34'119.1
2018-Sep-14 22:00N 50°53' W 127°36'918.7
2018-Sep-14 21:30N 50°59' W 127°47'716.1
2018-Sep-14 21:03N 51°03' W 127°57'119.4
2018-Sep-14 21:00N 51°03' W 127°58'1019.9
2018-Sep-14 20:30N 51°09' W 128°11'920.6
2018-Sep-14 20:03N 51°16' W 128°21'121.2
2018-Sep-14 20:00N 51°17' W 128°22'1121.3
2018-Sep-14 19:30N 51°27' W 128°27'920.9
2018-Sep-14 19:03N 51°36' W 128°31'120.8
2018-Sep-14 19:00N 51°37' W 128°32'1019.6
2018-Sep-14 18:30N 51°46' W 128°38'818.5
2018-Sep-14 18:03N 51°51' W 128°48'118.3
2018-Sep-14 18:00N 51°52' W 128°49'918.7
2018-Sep-14 17:30N 51°58' W 129°01'919.1
2018-Sep-14 17:03N 52°03' W 129°12'119.0
2018-Sep-14 17:00N 52°04' W 129°13'1019.3
2018-Sep-14 16:30N 52°10' W 129°26'919.4
2018-Sep-14 16:03N 52°15' W 129°37'119.4
2018-Sep-14 16:00N 52°16' W 129°38'1019.3
2018-Sep-14 15:30N 52°22' W 129°49'919.5
2018-Sep-14 15:03N 52°30' W 129°57'119.3
2018-Sep-14 15:00N 52°31' W 129°58'1019.8
2018-Sep-14 14:30N 52°39' W 130°06'1019.6
2018-Sep-14 14:00N 52°48' W 130°14'185.7
2018-Sep-14 14:00N 52°48' W 130°12'2121.0 110 / 71013.310.8 13.0 14.0
2018-Sep-14 13:00N 53°06' W 130°30'1118.4 110 / 81013.6 5.4 12.0 14.0
2018-Sep-14 12:25N 53°15' W 130°38'719.2
2018-Sep-14 12:03N 53°22' W 130°43'119.3
2018-Sep-14 12:00N 53°22' W 130°44'2132.4
2018-Sep-14 12:00N 53°24' W 130°42'917.8 110 / 51014.1 5.4 12.0 13.0
2018-Sep-14 11:30N 53°31' W 130°50'919.0
2018-Sep-14 11:03N 53°39' W 130°54'119.0
2018-Sep-14 11:00N 53°40' W 130°54'918.9
2018-Sep-14 10:31N 53°49' W 130°59'919.1
2018-Sep-14 10:03N 53°58' W 130°60'119.3
2018-Sep-14 10:00N 53°59' W 130°60'1019.8
2018-Sep-14 09:30N 54°09' W 131°02'920.3
2018-Sep-14 09:03N 54°18' W 131°04'120.8
2018-Sep-14 09:00N 54°19' W 131°04'1020.5
2018-Sep-14 08:30N 54°28' W 131°12'2018.0
2018-Sep-14 07:25N 54°48' W 131°11'719.4
2018-Sep-14 07:03N 54°54' W 131°07'120.1
2018-Sep-14 07:00N 54°55' W 131°07'7 2.4
2018-Sep-14 04:15N 55°02' W 131°08'59 4.5
2018-Sep-13 15:00N 55°42' W 132°24'2120.6 240 / 21016.027.0 11.0 13.0
2018-Sep-13 14:00N 56°00' W 132°42'18113.0 270 / 101016.227.0 10.0 13.0
2018-Sep-13 00:02N 58°18' W 136°17'122.6
2018-Sep-13 00:00N 58°18' W 136°15'1019.9
2018-Sep-12 23:30N 58°24' W 135°59'511.4
2018-Sep-12 23:03N 58°28' W 136°02'114.6
2018-Sep-12 23:00N 58°29' W 136°03'816.6
2018-Sep-12 22:30N 58°37' W 136°06'919.4
2018-Sep-12 22:03N 58°44' W 136°17'119.4
2018-Sep-12 22:00N 58°45' W 136°18'1019.4
2018-Sep-12 21:30N 58°50' W 136°33'2 0.3
2018-Sep-12 16:33N 58°50' W 136°30'119.1
2018-Sep-12 16:30N 58°49' W 136°28'819.2
2018-Sep-12 16:03N 58°44' W 136°16'118.8
2018-Sep-12 16:00N 58°43' W 136°15'918.7
2018-Sep-12 15:30N 58°36' W 136°04'716.2
2018-Sep-12 15:03N 58°28' W 136°03'111.8
2018-Sep-12 15:00N 58°28' W 136°02'2157.9
2018-Sep-12 15:00N 58°30' W 136°00'713.5 010 / 21017.810.8 12.0 17.0
2018-Sep-12 14:30N 58°24' W 135°57'612.3
2018-Sep-12 14:00N 58°18' W 135°54'3280.5
2018-Sep-12 14:00N 58°18' W 135°48'3 5.2 050 / 41016.910.8 12.0 17.0
2018-Sep-12 13:30N 58°17' W 135°43'511.7
2018-Sep-12 13:03N 58°16' W 135°34'110.8
2018-Sep-12 13:00N 58°16' W 135°33'6386.0
2018-Sep-12 13:00N 58°12' W 135°24'2 3.7 300 / 31017.1 5.4 10.0 17.0
2018-Sep-12 12:30N 58°14' W 135°24'510.8
2018-Sep-12 12:03N 58°12' W 135°15'8 7.6
2018-Sep-12 11:00N 58°12' W 135°00'61 2.8 360 / 151016.510.8 13.6 14.0
2018-Sep-11 13:00N 59°12' W 135°18'308 9.1 350 / 201013.6 5.4 12.0 14.0
2018-Sep-10 03:06N 54°27' W 131°47'119.5
2018-Sep-10 03:03N 54°26' W 131°46'121.0
2018-Sep-10 03:00N 54°26' W 131°44'1019.6
2018-Sep-10 02:30N 54°24' W 131°28'818.7
2018-Sep-10 02:03N 54°22' W 131°14'119.2
2018-Sep-10 02:00N 54°21' W 131°12'816.7
2018-Sep-10 01:30N 54°17' W 131°01'715.1
2018-Sep-10 01:03N 54°10' W 131°01'116.7
2018-Sep-10 01:00N 54°09' W 131°01'816.8
2018-Sep-10 00:30N 54°01' W 130°59'716.2
2018-Sep-10 00:03N 53°54' W 130°54'115.9
2018-Sep-10 00:00N 53°54' W 130°53'6387.4
2018-Sep-10 00:00N 53°48' W 130°48'3 6.6 120 / 201003.2 5.4 14.2 16.5
2018-Sep-09 23:30N 53°48' W 130°42'716.9
2018-Sep-09 23:03N 53°43' W 130°33'116.5
2018-Sep-09 23:00N 53°42' W 130°32'1016.5
2018-Sep-09 22:24N 53°36' W 130°19'616.1
2018-Sep-09 22:00N 53°33' W 130°10'6717.4
2018-Sep-09 18:10N 52°41' W 128°59'635.2
2018-Sep-09 18:00N 52°36' W 128°54'1 6.6 140 / 221005.1 5.4 15.9 17.3
2018-Sep-09 17:53N 52°37' W 128°54'720.1
2018-Sep-09 17:30N 52°29' W 128°52'919.6
2018-Sep-09 17:03N 52°21' W 128°50'119.9
2018-Sep-09 17:00N 52°20' W 128°50'1019.5
2018-Sep-09 16:30N 52°10' W 128°46'919.8
2018-Sep-09 16:03N 52°01' W 128°43'119.7
2018-Sep-09 16:00N 52°00' W 128°43'1019.6
2018-Sep-09 15:30N 51°51' W 128°39'919.2
2018-Sep-09 15:03N 51°43' W 128°34'119.4
2018-Sep-09 15:00N 51°42' W 128°34'1019.1
2018-Sep-09 14:30N 51°32' W 128°32'918.8
2018-Sep-09 14:00N 51°23' W 128°33'917.4
2018-Sep-09 13:30N 51°16' W 128°26'919.9
2018-Sep-09 13:03N 51°10' W 128°14'121.1
2018-Sep-09 13:00N 51°10' W 128°13'1020.6
2018-Sep-09 12:30N 51°04' W 127°59'921.0
2018-Sep-09 12:03N 50°58' W 127°47'121.9
2018-Sep-09 12:00N 50°58' W 127°46'1121.7
2018-Sep-09 11:30N 50°51' W 127°31'1021.3
2018-Sep-09 11:03N 50°48' W 127°18'120.5
2018-Sep-09 11:00N 50°47' W 127°16'1020.7
2018-Sep-09 10:30N 50°43' W 127°01'1019.8
2018-Sep-09 10:01N 50°38' W 126°48'021.8
2018-Sep-09 10:00N 50°38' W 126°48'4117.4
2018-Sep-09 07:39N 50°23' W 125°48'1018.3
2018-Sep-09 07:05N 50°21' W 125°32'118.6
2018-Sep-09 07:02N 50°21' W 125°31'217.6
2018-Sep-09 06:54N 50°20' W 125°27'716.6
2018-Sep-09 06:30N 50°14' W 125°23'715.5
2018-Sep-09 06:03N 50°07' W 125°21'113.5
2018-Sep-09 06:00N 50°07' W 125°20'713.0
2018-Sep-09 05:30N 50°02' W 125°13'716.1
2018-Sep-09 05:03N 49°56' W 125°07'116.9
2018-Sep-09 05:00N 49°56' W 125°06'816.5
2018-Sep-09 04:30N 49°50' W 124°56'716.7
2018-Sep-09 04:03N 49°44' W 124°48'116.6
2018-Sep-09 04:00N 49°44' W 124°47'816.5
2018-Sep-09 03:30N 49°38' W 124°38'817.5
2018-Sep-09 03:03N 49°33' W 124°30'120.1
2018-Sep-09 03:00N 49°32' W 124°28'1019.7
2018-Sep-09 02:30N 49°25' W 124°17'919.3
2018-Sep-09 02:03N 49°23' W 124°04'119.5
2018-Sep-09 02:01N 49°23' W 124°03'1019.2
2018-Sep-09 01:30N 49°20' W 123°49'818.6
2018-Sep-09 01:04N 49°19' W 123°36'119.1
2018-Sep-09 01:00N 49°19' W 123°34'3226.9
2018-Sep-09 01:00N 49°18' W 123°30'714.4 140 / 161017.310.8 15.7 20.3
2018-Sep-09 00:30N 49°19' W 123°19'716.3
2018-Sep-09 00:03N 49°19' W 123°08'0 9.1
2018-Sep-09 00:00N 49°19' W 123°08'1 2.8
2018-Sep-08 23:30N 49°17' W 123°07'0 0.0
2018-Sep-08 23:03N 49°17' W 123°07'0 0.0
2018-Sep-08 23:00N 49°17' W 123°07'0 0.0
2018-Sep-08 22:30N 49°17' W 123°07'0 0.0
2018-Sep-08 22:03N 49°17' W 123°07'0 0.0
2018-Sep-08 22:00N 49°17' W 123°07'0 0.0
2018-Sep-08 21:29N 49°17' W 123°07'0 0.0
2018-Sep-08 21:01N 49°17' W 123°07'0 0.0
2018-Sep-08 20:58N 49°17' W 123°07'0 0.0
2018-Sep-08 20:28N 49°17' W 123°07'0 0.0
2018-Sep-08 20:01N 49°17' W 123°07'0 0.0
2018-Sep-08 19:58N 49°17' W 123°07'0 0.0
2018-Sep-08 19:27N 49°17' W 123°07'0 0.0
2018-Sep-08 19:03N 49°17' W 123°07'0 0.0
2018-Sep-08 19:00N 49°17' W 123°07'0 0.0
2018-Sep-08 18:30N 49°17' W 123°07'0 0.0
2018-Sep-08 18:03N 49°17' W 123°07'0 0.0
2018-Sep-08 18:00N 49°17' W 123°07'0 0.0
2018-Sep-08 17:30N 49°17' W 123°07'0 0.0
2018-Sep-08 17:03N 49°17' W 123°07'0 0.0
2018-Sep-08 17:00N 49°17' W 123°07'0 0.0
2018-Sep-08 16:30N 49°17' W 123°07'0 0.0
2018-Sep-08 16:03N 49°17' W 123°07'0 0.0
2018-Sep-08 16:00N 49°17' W 123°07'0 0.0
2018-Sep-08 15:30N 49°17' W 123°07'0 0.0
2018-Sep-08 15:03N 49°17' W 123°07'0 0.0
2018-Sep-08 15:00N 49°17' W 123°07'0 0.0
2018-Sep-08 14:29N 49°17' W 123°07'0 0.1
2018-Sep-08 14:00N 49°17' W 123°07'2 3.9
2018-Sep-08 13:30N 49°19' W 123°08'613.7
2018-Sep-08 13:03N 49°19' W 123°18'113.9
2018-Sep-08 13:00N 49°19' W 123°19'1104.4
2018-Sep-08 13:00N 49°18' W 123°18'   110 / 131017.8 5.4 15.0 16.0

Dump ship's entire track history